createdAt,value
2022-10-04T00:02:34.010Z,8.83
2022-10-04T00:05:24.727Z,8.80
2022-10-04T00:08:35.528Z,8.17
2022-10-04T00:11:37.302Z,8.23
2022-10-04T00:14:30.900Z,8.60
2022-10-04T00:17:23.936Z,8.33
2022-10-04T00:20:53.273Z,8.57
2022-10-04T00:23:43.662Z,8.00
2022-10-04T00:26:30.542Z,8.47
2022-10-04T00:29:26.660Z,8.17
2022-10-04T00:32:13.608Z,8.37
2022-10-04T00:35:00.577Z,7.80
2022-10-04T00:37:59.442Z,8.43
2022-10-04T00:40:56.580Z,8.10
2022-10-04T00:43:47.832Z,8.60
2022-10-04T00:46:40.304Z,8.70
2022-10-04T00:49:34.077Z,8.90
2022-10-04T00:52:26.231Z,8.33
2022-10-04T00:55:33.446Z,8.23
2022-10-04T00:58:29.555Z,8.93
2022-10-04T01:01:23.370Z,8.33
2022-10-04T01:04:28.069Z,8.80
2022-10-04T01:07:21.242Z,9.23
2022-10-04T01:10:13.805Z,8.70
2022-10-04T01:13:09.712Z,8.63
2022-10-04T01:16:15.053Z,9.10
2022-10-04T01:19:24.430Z,9.47
2022-10-04T01:22:17.833Z,9.53
2022-10-04T01:25:05.166Z,9.03
2022-10-04T01:27:52.978Z,10.83
2022-10-04T01:30:40.071Z,8.67
2022-10-04T01:33:27.173Z,9.50
2022-10-04T01:36:14.198Z,9.33
2022-10-04T01:39:01.602Z,9.80
2022-10-04T01:41:48.518Z,9.67
2022-10-04T01:44:48.476Z,10.33
2022-10-04T01:47:48.499Z,9.20
2022-10-04T01:50:45.379Z,9.83
2022-10-04T01:53:40.643Z,11.87
2022-10-04T01:56:52.828Z,11.97
2022-10-04T01:59:51.185Z,11.37
2022-10-04T02:03:09.043Z,11.33
2022-10-04T02:06:00.717Z,11.33
2022-10-04T02:08:50.821Z,11.40
2022-10-04T02:11:41.346Z,12.47
2022-10-04T02:14:33.177Z,11.77
2022-10-04T02:17:28.234Z,11.17
2022-10-04T02:20:18.606Z,10.40
2022-10-04T02:23:06.144Z,9.77
2022-10-04T02:25:53.267Z,10.10
2022-10-04T02:28:40.686Z,9.97
2022-10-04T02:31:47.256Z,9.60
2022-10-04T02:34:34.740Z,9.20
2022-10-04T02:37:27.635Z,9.00
2022-10-04T02:40:19.796Z,7.87
2022-10-04T02:43:28.352Z,8.37
2022-10-04T02:46:27.307Z,7.63
2022-10-04T02:49:28.332Z,6.63
2022-10-04T02:52:18.200Z,7.37
2022-10-04T02:55:13.591Z,7.00
2022-10-04T02:58:01.418Z,6.50
2022-10-04T03:00:57.083Z,5.83
2022-10-04T03:03:47.284Z,5.87
2022-10-04T03:06:34.361Z,5.57
2022-10-04T03:09:27.402Z,5.03
2022-10-04T03:12:17.002Z,4.70
2022-10-04T03:15:06.466Z,5.77
2022-10-04T03:17:53.755Z,5.40
2022-10-04T03:20:41.223Z,4.57
2022-10-04T03:23:31.102Z,4.57
2022-10-04T03:26:36.429Z,4.17
2022-10-04T03:29:26.405Z,5.27
2022-10-04T03:32:16.538Z,4.60
2022-10-04T03:35:07.617Z,4.60
2022-10-04T03:37:56.896Z,4.80
2022-10-04T03:40:53.862Z,4.43
2022-10-04T03:43:50.189Z,4.47
2022-10-04T03:46:37.738Z,4.57
2022-10-04T03:49:37.003Z,5.10
2022-10-04T03:52:50.713Z,4.57
2022-10-04T03:55:43.520Z,4.10
2022-10-04T03:58:31.283Z,5.17
2022-10-04T04:01:44.926Z,4.10
2022-10-04T04:04:43.192Z,3.80
2022-10-04T04:07:46.290Z,4.23
2022-10-04T04:10:41.847Z,4.17
2022-10-04T04:13:45.722Z,5.07
2022-10-04T04:16:33.327Z,4.30
2022-10-04T04:19:24.741Z,5.00
2022-10-04T04:22:16.464Z,4.80
2022-10-04T04:25:08.262Z,5.47
2022-10-04T04:28:12.167Z,5.40
2022-10-04T04:31:04.493Z,5.17
2022-10-04T04:34:03.786Z,5.17
2022-10-04T04:36:52.752Z,5.47
2022-10-04T04:39:41.956Z,4.60
2022-10-04T04:42:34.784Z,5.07
2022-10-04T04:45:29.476Z,4.53
2022-10-04T04:48:18.803Z,4.37
2022-10-04T04:51:05.860Z,5.10
2022-10-04T04:53:54.848Z,4.43
2022-10-04T04:56:43.687Z,4.80
2022-10-04T04:59:31.034Z,5.83
2022-10-04T05:02:37.818Z,4.73
2022-10-04T05:05:27.068Z,5.27
2022-10-04T05:08:16.853Z,5.50
2022-10-04T05:11:08.346Z,5.20
2022-10-04T05:14:05.898Z,4.00
2022-10-04T05:16:55.850Z,3.93
2022-10-04T05:19:42.877Z,3.93
2022-10-04T05:22:31.732Z,3.77
2022-10-04T05:25:33.306Z,3.93
2022-10-04T05:28:20.492Z,4.57
2022-10-04T05:31:24.313Z,4.23
2022-10-04T05:34:30.398Z,3.80
2022-10-04T05:37:20.638Z,4.10
2022-10-04T05:40:13.478Z,4.03
2022-10-04T05:43:00.535Z,3.40
2022-10-04T05:45:48.834Z,4.07
2022-10-04T05:48:37.125Z,3.30
2022-10-04T05:51:30.710Z,4.63
2022-10-04T05:54:26.316Z,4.00
2022-10-04T05:57:30.600Z,4.00
2022-10-04T06:00:21.545Z,3.83
2022-10-04T06:03:21.005Z,3.60
2022-10-04T06:06:40.482Z,3.40
2022-10-04T06:09:50.947Z,3.20
2022-10-04T06:13:08.252Z,3.10
2022-10-04T06:16:24.724Z,3.07
2022-10-04T06:19:53.831Z,3.47
2022-10-04T06:22:48.172Z,3.23
2022-10-04T06:25:44.057Z,3.73
2022-10-04T06:28:35.949Z,3.40
2022-10-04T06:31:25.552Z,3.70
2022-10-04T06:34:50.112Z,3.63
2022-10-04T06:37:54.796Z,3.67
2022-10-04T06:41:02.668Z,3.47
2022-10-04T06:43:56.705Z,3.40
2022-10-04T06:47:04.969Z,4.13
2022-10-04T06:50:04.615Z,4.00
2022-10-04T06:53:03.004Z,4.50
2022-10-04T06:56:02.868Z,3.70
2022-10-04T06:59:20.798Z,4.00
2022-10-04T07:02:31.861Z,4.40
2022-10-04T07:05:33.776Z,4.40
2022-10-04T07:08:36.819Z,4.13
2022-10-04T07:11:30.142Z,3.97
2022-10-04T07:14:31.040Z,3.73
2022-10-04T07:17:26.916Z,4.00
2022-10-04T07:20:33.750Z,3.43
2022-10-04T07:23:48.394Z,3.63
2022-10-04T07:26:46.140Z,3.60
2022-10-04T07:29:41.982Z,3.87
2022-10-04T07:32:38.721Z,3.80
2022-10-04T07:35:43.806Z,4.03
2022-10-04T07:38:34.182Z,3.57
2022-10-04T07:41:39.215Z,8.33
2022-10-04T07:44:39.406Z,6.67
2022-10-04T07:47:27.822Z,4.80
2022-10-04T07:50:23.391Z,4.27
2022-10-04T07:53:24.092Z,4.00
2022-10-04T07:56:37.135Z,4.40
2022-10-04T08:00:02.998Z,3.73
2022-10-04T08:03:25.393Z,5.40
2022-10-04T08:06:34.524Z,5.40
2022-10-04T08:09:41.892Z,5.17
2022-10-04T08:12:57.124Z,4.63
2022-10-04T08:15:44.907Z,4.40
2022-10-04T08:19:27.566Z,4.90
2022-10-04T08:23:01.606Z,5.50
2022-10-04T08:26:12.794Z,4.67
2022-10-04T08:29:36.323Z,5.03
2022-10-04T08:32:29.750Z,5.63
2022-10-04T08:35:29.160Z,5.37
2022-10-04T08:38:34.829Z,5.30
2022-10-04T08:41:53.932Z,5.50
2022-10-04T08:45:23.249Z,4.17
2022-10-04T08:48:44.625Z,5.57
2022-10-04T08:51:52.880Z,4.43
2022-10-04T08:55:20.692Z,5.13
2022-10-04T08:58:41.219Z,4.97
2022-10-04T09:01:38.369Z,5.03
2022-10-04T09:04:56.708Z,6.07
2022-10-04T09:07:49.381Z,6.00
2022-10-04T09:11:10.364Z,5.70
2022-10-04T09:14:18.950Z,5.93
2022-10-04T09:17:42.220Z,5.90
2022-10-04T09:20:39.435Z,6.20
2022-10-04T09:23:34.066Z,6.67
2022-10-04T09:26:55.140Z,7.40
2022-10-04T09:29:51.877Z,5.27
2022-10-04T09:32:59.947Z,4.97
2022-10-04T09:35:53.727Z,4.70
2022-10-04T09:39:30.760Z,4.55
2022-10-04T09:42:40.487Z,4.22
2022-10-04T09:45:55.018Z,4.40
2022-10-04T09:48:59.996Z,4.55
2022-10-04T09:52:12.891Z,4.45
2022-10-04T09:55:36.736Z,4.80
2022-10-04T09:58:46.351Z,5.10
2022-10-04T10:01:57.539Z,4.87
2022-10-04T10:05:10.145Z,4.57
2022-10-04T10:08:13.304Z,4.70
2022-10-04T10:11:34.411Z,5.10
2022-10-04T10:14:42.461Z,4.53
2022-10-04T10:17:56.160Z,3.65
2022-10-04T10:21:10.673Z,4.27
2022-10-04T10:24:05.036Z,4.37
2022-10-04T10:27:03.525Z,4.07
2022-10-04T10:30:16.597Z,4.10
2022-10-04T10:33:21.958Z,3.80
2022-10-04T10:36:27.510Z,3.87
2022-10-04T10:39:25.997Z,4.70
2022-10-04T10:42:16.626Z,4.80
2022-10-04T10:45:20.431Z,4.13
2022-10-04T10:48:26.363Z,3.95
2022-10-04T10:51:35.735Z,4.10
2022-10-04T10:54:32.066Z,3.72
2022-10-04T10:58:06.449Z,4.53
2022-10-04T11:01:03.350Z,3.67
2022-10-04T11:03:55.919Z,4.80
2022-10-04T11:07:08.629Z,4.65
2022-10-04T11:10:32.294Z,4.55
2022-10-04T11:13:51.458Z,4.35
2022-10-04T11:17:07.693Z,4.53
2022-10-04T11:20:26.933Z,4.53
2022-10-04T11:23:14.477Z,4.38
2022-10-04T11:26:20.142Z,4.78
2022-10-04T11:29:26.163Z,4.93
2022-10-04T11:32:19.655Z,4.70
2022-10-04T11:35:25.209Z,4.90
2022-10-04T11:38:39.911Z,4.55
2022-10-04T11:41:39.325Z,4.32
2022-10-04T11:44:59.782Z,4.30
2022-10-04T11:47:56.070Z,4.53
2022-10-04T11:51:28.747Z,5.63
2022-10-04T11:54:47.830Z,5.25
2022-10-04T11:57:59.376Z,4.95
2022-10-04T12:01:14.116Z,5.38
2022-10-04T12:04:22.395Z,7.28
2022-10-04T12:07:42.487Z,5.47
2022-10-04T12:10:37.256Z,5.28
2022-10-04T12:13:47.722Z,4.97
2022-10-04T12:16:47.969Z,5.22
2022-10-04T12:20:09.884Z,5.63
2022-10-04T12:23:42.754Z,4.95
2022-10-04T12:27:07.464Z,4.50
2022-10-04T12:30:30.847Z,4.15
2022-10-04T12:34:14.600Z,3.42
2022-10-04T12:37:26.461Z,3.42
2022-10-04T12:40:33.088Z,4.40
2022-10-04T12:43:30.801Z,3.75
2022-10-04T12:46:36.038Z,3.45
2022-10-04T12:49:34.286Z,3.00
2022-10-04T12:52:27.703Z,3.40
2022-10-04T12:55:56.952Z,2.97
2022-10-04T12:58:58.961Z,2.80
2022-10-04T13:02:02.250Z,3.28
2022-10-04T13:05:02.982Z,3.00
2022-10-04T13:08:18.240Z,2.97
2022-10-04T13:11:28.759Z,3.42
2022-10-04T13:14:37.734Z,3.05
2022-10-04T13:17:50.294Z,3.05
2022-10-04T13:21:00.581Z,2.92
2022-10-04T13:24:05.180Z,3.42
2022-10-04T13:27:02.223Z,3.05
2022-10-04T13:30:06.115Z,3.15
2022-10-04T13:33:04.287Z,2.85
2022-10-04T13:36:17.331Z,3.00
2022-10-04T13:39:16.451Z,2.65
2022-10-04T13:42:21.569Z,2.72
2022-10-04T13:45:26.709Z,3.00
2022-10-04T13:48:25.497Z,2.40
2022-10-04T13:51:24.508Z,2.67
2022-10-04T13:54:48.184Z,2.47
2022-10-04T13:57:48.078Z,2.42
2022-10-04T14:01:02.996Z,2.75
2022-10-04T14:04:17.120Z,2.55
2022-10-04T14:07:22.636Z,2.75
2022-10-04T14:10:38.433Z,2.40
2022-10-04T14:13:56.499Z,2.40
2022-10-04T14:17:05.683Z,2.38
2022-10-04T14:20:29.914Z,2.50
2022-10-04T14:23:45.526Z,2.28
2022-10-04T14:27:02.089Z,2.35
2022-10-04T14:30:08.302Z,2.42
2022-10-04T14:33:01.456Z,3.75
2022-10-04T14:36:12.657Z,2.50
2022-10-04T14:39:21.257Z,2.53
2022-10-04T14:42:14.553Z,3.03
2022-10-04T14:45:20.066Z,2.72
2022-10-04T14:48:17.909Z,2.20
2022-10-04T14:51:27.617Z,2.25
2022-10-04T14:54:26.801Z,2.30
2022-10-04T14:57:50.003Z,2.55
2022-10-04T15:00:55.644Z,2.15
2022-10-04T15:03:49.136Z,2.00
2022-10-04T15:06:58.198Z,2.17
2022-10-04T15:10:03.393Z,2.40
2022-10-04T15:13:15.139Z,2.03
2022-10-04T15:16:14.623Z,2.05
2022-10-04T15:19:21.660Z,2.10
2022-10-04T15:22:22.003Z,2.45
2022-10-04T15:25:38.374Z,2.65
2022-10-04T15:28:50.960Z,2.87
2022-10-04T15:31:50.437Z,2.28
2022-10-04T15:35:00.717Z,2.63
2022-10-04T15:37:53.845Z,2.50
2022-10-04T15:40:54.157Z,2.72
2022-10-04T15:43:50.036Z,2.33
2022-10-04T15:47:08.259Z,2.13
2022-10-04T15:49:57.804Z,2.30
2022-10-04T15:52:44.701Z,2.28
2022-10-04T15:55:51.433Z,2.35
2022-10-04T15:59:26.733Z,2.50
2022-10-04T16:02:59.662Z,2.30
2022-10-04T16:06:01.796Z,3.30
2022-10-04T16:09:00.342Z,2.00
2022-10-04T16:12:20.250Z,2.47
2022-10-04T16:15:29.127Z,2.30
2022-10-04T16:18:44.671Z,2.50
2022-10-04T16:21:43.500Z,2.27
2022-10-04T16:24:39.485Z,2.30
2022-10-04T16:27:58.737Z,2.17
2022-10-04T16:31:21.125Z,2.00
2022-10-04T16:34:17.050Z,1.70
2022-10-04T16:37:10.186Z,1.80
2022-10-04T16:40:06.120Z,2.17
2022-10-04T16:43:03.896Z,2.17
2022-10-04T16:46:17.283Z,2.00
2022-10-04T16:49:37.589Z,2.20
2022-10-04T16:52:36.176Z,2.20
2022-10-04T16:55:46.748Z,2.30
2022-10-04T16:58:38.638Z,2.60
2022-10-04T17:02:00.535Z,2.33
2022-10-04T17:05:02.799Z,2.10
2022-10-04T17:08:17.194Z,2.20
2022-10-04T17:11:29.844Z,2.60
2022-10-04T17:14:55.244Z,6.40
2022-10-04T17:17:56.946Z,5.10
2022-10-04T17:20:47.149Z,4.10
2022-10-04T17:24:15.439Z,3.57
2022-10-04T17:27:26.304Z,2.87
2022-10-04T17:30:26.777Z,2.73
2022-10-04T17:33:30.408Z,2.93
2022-10-04T17:36:35.797Z,3.00
2022-10-04T17:39:33.934Z,2.73
2022-10-04T17:42:29.222Z,2.83
2022-10-04T17:45:40.159Z,2.47
2022-10-04T17:48:46.021Z,2.70
2022-10-04T17:52:08.016Z,2.50
2022-10-04T17:55:15.665Z,3.10
2022-10-04T17:58:12.309Z,3.00
2022-10-04T18:01:16.913Z,2.90
2022-10-04T18:04:20.873Z,2.83
2022-10-04T18:07:34.143Z,2.83
2022-10-04T18:11:03.524Z,3.00
2022-10-04T18:14:04.423Z,2.57
2022-10-04T18:16:55.979Z,2.60
2022-10-04T18:19:50.042Z,2.77
2022-10-04T18:22:55.454Z,2.67
2022-10-04T18:25:43.485Z,2.63
2022-10-04T18:28:34.562Z,2.87
2022-10-04T18:31:29.379Z,3.17
2022-10-04T18:34:18.738Z,2.67
2022-10-04T18:37:17.705Z,2.50
2022-10-04T18:40:22.462Z,2.80
2022-10-04T18:43:41.315Z,2.70
2022-10-04T18:46:38.331Z,2.70
2022-10-04T18:49:43.622Z,3.20
2022-10-04T18:52:48.645Z,2.77
2022-10-04T18:55:50.360Z,2.83
2022-10-04T18:59:23.581Z,2.93
2022-10-04T19:02:38.922Z,2.90
2022-10-04T19:05:43.409Z,2.70
2022-10-04T19:08:53.236Z,3.20
2022-10-04T19:11:52.084Z,3.50
2022-10-04T19:15:08.314Z,8.40
2022-10-04T19:18:07.607Z,6.20
2022-10-04T19:21:38.804Z,4.90
2022-10-04T19:24:39.668Z,4.60
2022-10-04T19:27:38.693Z,5.47
2022-10-04T19:30:41.412Z,6.33
2022-10-04T19:33:35.845Z,6.07
2022-10-04T19:36:39.164Z,7.70
2022-10-04T19:39:38.217Z,6.67
2022-10-04T19:42:49.746Z,4.13
2022-10-04T19:46:02.219Z,4.00
2022-10-04T19:48:51.296Z,3.10
2022-10-04T19:52:12.592Z,3.13
2022-10-04T19:55:17.427Z,3.70
2022-10-04T19:58:14.183Z,3.60
2022-10-04T20:01:01.609Z,3.60
2022-10-04T20:04:08.988Z,3.33
2022-10-04T20:06:58.226Z,4.00
2022-10-04T20:10:04.057Z,3.73
2022-10-04T20:13:21.057Z,3.70
2022-10-04T20:16:08.048Z,4.10
2022-10-04T20:18:59.626Z,3.47
2022-10-04T20:21:46.643Z,3.67
2022-10-04T20:24:36.324Z,3.70
2022-10-04T20:27:29.504Z,3.53
2022-10-04T20:30:16.586Z,3.67
2022-10-04T20:33:03.767Z,3.63
2022-10-04T20:36:00.124Z,4.10
2022-10-04T20:39:01.074Z,3.80
2022-10-04T20:42:19.592Z,3.70
2022-10-04T20:45:09.535Z,3.70
2022-10-04T20:47:59.489Z,3.83
2022-10-04T20:50:49.457Z,3.73
2022-10-04T20:53:46.594Z,3.37
2022-10-04T20:56:33.849Z,4.03
2022-10-04T20:59:22.163Z,3.53
2022-10-04T21:02:17.552Z,4.27
2022-10-04T21:05:24.748Z,4.00
2022-10-04T21:08:27.045Z,3.90
2022-10-04T21:11:20.636Z,3.60
2022-10-04T21:14:25.711Z,3.70
2022-10-04T21:18:05.988Z,3.97
2022-10-04T21:20:52.983Z,3.90
2022-10-04T21:23:39.882Z,3.60
2022-10-04T21:26:27.839Z,3.50
2022-10-04T21:29:14.797Z,3.77
2022-10-04T21:32:01.976Z,4.53
2022-10-04T21:34:53.620Z,3.80
2022-10-04T21:37:41.966Z,3.60
2022-10-04T21:40:28.949Z,4.00
2022-10-04T21:43:15.932Z,3.73
2022-10-04T21:46:02.994Z,3.90
2022-10-04T21:48:50.075Z,3.77
2022-10-04T21:51:37.429Z,4.13
2022-10-04T21:54:24.925Z,3.70
2022-10-04T21:57:12.349Z,4.73
2022-10-04T21:59:59.283Z,3.80
2022-10-04T22:02:46.288Z,3.87
2022-10-04T22:05:33.359Z,4.17
2022-10-04T22:08:20.267Z,4.47
2022-10-04T22:11:07.201Z,4.47
2022-10-04T22:13:54.137Z,3.67
2022-10-04T22:16:41.140Z,4.10
2022-10-04T22:19:28.238Z,4.07
2022-10-04T22:22:16.506Z,4.07
2022-10-04T22:25:10.242Z,4.33
2022-10-04T22:27:57.246Z,3.87
2022-10-04T22:30:44.348Z,4.83
2022-10-04T22:33:34.819Z,4.50
2022-10-04T22:36:34.351Z,4.70
2022-10-04T22:39:21.906Z,4.73
2022-10-04T22:42:12.658Z,4.53
2022-10-04T22:45:01.714Z,4.60
2022-10-04T22:47:49.337Z,5.47
2022-10-04T22:50:37.648Z,5.30
2022-10-04T22:53:24.815Z,4.50
2022-10-04T22:56:14.011Z,4.63
2022-10-04T22:59:00.976Z,4.90
2022-10-04T23:01:48.174Z,4.40
2022-10-04T23:04:35.174Z,4.90
2022-10-04T23:07:22.157Z,4.90
2022-10-04T23:10:10.224Z,4.63
2022-10-04T23:12:57.164Z,4.97
2022-10-04T23:15:44.267Z,5.03
2022-10-04T23:18:33.175Z,5.23
2022-10-04T23:21:24.900Z,4.83
2022-10-04T23:24:16.052Z,5.93
2022-10-04T23:27:03.828Z,5.27
2022-10-04T23:30:00.627Z,5.50
2022-10-04T23:32:50.122Z,5.40
2022-10-04T23:35:37.052Z,4.93
2022-10-04T23:38:25.144Z,5.33
2022-10-04T23:41:12.554Z,5.47
2022-10-04T23:43:59.548Z,5.27
2022-10-04T23:46:46.746Z,5.00
2022-10-04T23:49:34.244Z,4.93
2022-10-04T23:52:24.955Z,5.23
2022-10-04T23:55:19.092Z,5.47
2022-10-04T23:58:13.490Z,5.50
